sensor_id;sensor_type;location;lat;lon;timestamp;pressure;altitude;pressure_sealevel;temperature;humidity
49877;BME280;35771;48.978;9.294;2023-03-15T07:37:55;99126.56;;;1.27;100.00
49877;BME280;35771;48.978;9.294;2023-03-15T07:41:29;99137.19;;;1.50;100.00
49877;BME280;35771;48.978;9.294;2023-03-15T07:43:56;99103.94;;;1.52;100.00
49877;BME280;35771;48.978;9.294;2023-03-15T07:46:23;99123.50;;;1.64;100.00
49877;BME280;35771;48.978;9.294;2023-03-15T07:48:50;99135.47;;;1.81;100.00
49877;BME280;35771;48.978;9.294;2023-03-15T07:51:17;99142.16;;;1.87;100.00
49877;BME280;35771;48.978;9.294;2023-03-15T07:53:43;99138.09;;;1.92;100.00
49877;BME280;35771;48.978;9.294;2023-03-15T07:56:10;99129.19;;;2.13;100.00
49877;BME280;35771;48.978;9.294;2023-03-15T07:58:38;99119.69;;;2.30;100.00
49877;BME280;35771;48.978;9.294;2023-03-15T08:01:04;99119.41;;;2.33;100.00
49877;BME280;35771;48.978;9.294;2023-03-15T08:03:31;99109.41;;;2.35;100.00
49877;BME280;35771;48.978;9.294;2023-03-15T08:05:58;99127.78;;;2.40;100.00
49877;BME280;35771;48.978;9.294;2023-03-15T08:08:24;99118.50;;;2.44;100.00
49877;BME280;35771;48.978;9.294;2023-03-15T08:10:51;99116.13;;;2.51;100.00
49877;BME280;35771;48.978;9.294;2023-03-15T08:13:18;99137.28;;;2.75;100.00
49877;BME280;35771;48.978;9.294;2023-03-15T08:15:46;99137.13;;;2.76;100.00
49877;BME280;35771;48.978;9.294;2023-03-15T08:18:13;99135.88;;;2.80;97.88
49877;BME280;35771;48.978;9.294;2023-03-15T08:20:40;99115.50;;;2.68;98.78
49877;BME280;35771;48.978;9.294;2023-03-15T08:23:07;99147.19;;;2.84;92.81
49877;BME280;35771;48.978;9.294;2023-03-15T08:25:33;99118.44;;;2.65;89.10
49877;BME280;35771;48.978;9.294;2023-03-15T08:28:00;99142.22;;;2.79;91.62
49877;BME280;35771;48.978;9.294;2023-03-15T08:30:27;99147.53;;;3.00;90.95
49877;BME280;35771;48.978;9.294;2023-03-15T08:32:55;99135.75;;;2.92;86.73
49877;BME280;35771;48.978;9.294;2023-03-15T08:35:21;99144.00;;;3.00;91.32
49877;BME280;35771;48.978;9.294;2023-03-15T08:37:49;99134.28;;;3.09;89.59
49877;BME280;35771;48.978;9.294;2023-03-15T08:40:18;99139.09;;;3.15;86.38
49877;BME280;35771;48.978;9.294;2023-03-15T08:42:49;99157.25;;;3.42;87.03
49877;BME280;35771;48.978;9.294;2023-03-15T08:45:16;99152.59;;;3.54;88.10
49877;BME280;35771;48.978;9.294;2023-03-15T08:47:42;99141.41;;;3.59;83.19
49877;BME280;35771;48.978;9.294;2023-03-15T08:50:12;99156.97;;;3.65;82.18
49877;BME280;35771;48.978;9.294;2023-03-15T08:52:39;99159.81;;;3.63;81.68
49877;BME280;35771;48.978;9.294;2023-03-15T08:55:07;99162.91;;;3.88;83.45
49877;BME280;35771;48.978;9.294;2023-03-15T08:57:34;99151.41;;;4.15;83.58
49877;BME280;35771;48.978;9.294;2023-03-15T09:00:01;99166.28;;;4.29;78.49
49877;BME280;35771;48.978;9.294;2023-03-15T09:02:31;99139.06;;;4.32;80.38
49877;BME280;35771;48.978;9.294;2023-03-15T09:04:58;99141.56;;;4.53;74.75
49877;BME280;35771;48.978;9.294;2023-03-15T09:07:26;99146.38;;;4.50;76.63
49877;BME280;35771;48.978;9.294;2023-03-15T09:09:53;99139.31;;;4.39;74.86
49877;BME280;35771;48.978;9.294;2023-03-15T09:12:20;99164.84;;;4.35;73.41
49877;BME280;35771;48.978;9.294;2023-03-15T09:14:46;99178.28;;;4.35;74.54
49877;BME280;35771;48.978;9.294;2023-03-15T09:17:13;99182.69;;;4.36;77.29
49877;BME280;35771;48.978;9.294;2023-03-15T09:19:39;99178.44;;;4.43;75.23
49877;BME280;35771;48.978;9.294;2023-03-15T09:22:07;99185.47;;;4.54;75.79
49877;BME280;35771;48.978;9.294;2023-03-15T09:24:34;99182.59;;;4.65;77.86
49877;BME280;35771;48.978;9.294;2023-03-15T10:03:31;99189.09;;;5.38;67.12
49877;BME280;35771;48.978;9.294;2023-03-15T10:06:04;99193.41;;;5.30;66.18
49877;BME280;35771;48.978;9.294;2023-03-15T10:08:32;99185.16;;;5.32;67.41
49877;BME280;35771;48.978;9.294;2023-03-15T10:11:07;99175.84;;;5.44;68.18
49877;BME280;35771;48.978;9.294;2023-03-15T10:13:45;99169.09;;;5.76;68.28
49877;BME280;35771;48.978;9.294;2023-03-15T10:16:18;99196.22;;;5.93;65.69
49877;BME280;35771;48.978;9.294;2023-03-15T10:18:58;99181.69;;;5.67;67.16
49877;BME280;35771;48.978;9.294;2023-03-15T10:21:35;99191.44;;;5.68;66.95
49877;BME280;35771;48.978;9.294;2023-03-15T10:24:05;99189.06;;;5.83;65.93
49877;BME280;35771;48.978;9.294;2023-03-15T10:26:37;99183.03;;;5.99;65.80
49877;BME280;35771;48.978;9.294;2023-03-15T10:29:11;99184.19;;;5.87;62.66
49877;BME280;35771;48.978;9.294;2023-03-15T10:31:40;99163.97;;;6.01;63.54
49877;BME280;35771;48.978;9.294;2023-03-15T10:34:09;99169.25;;;5.93;66.08
49877;BME280;35771;48.978;9.294;2023-03-15T10:36:36;99170.88;;;6.03;65.03
49877;BME280;35771;48.978;9.294;2023-03-15T10:39:03;99176.56;;;6.36;65.41
49877;BME280;35771;48.978;9.294;2023-03-15T10:41:36;99154.47;;;6.15;57.91
49877;BME280;35771;48.978;9.294;2023-03-15T10:44:05;99149.50;;;6.54;59.21
49877;BME280;35771;48.978;9.294;2023-03-15T10:46:32;99158.53;;;6.37;58.16
49877;BME280;35771;48.978;9.294;2023-03-15T10:49:09;99174.66;;;5.93;57.17
49877;BME280;35771;48.978;9.294;2023-03-15T10:51:39;99173.16;;;6.08;57.62
49877;BME280;35771;48.978;9.294;2023-03-15T10:54:11;99170.34;;;5.82;58.35
49877;BME280;35771;48.978;9.294;2023-03-15T10:56:44;99197.94;;;5.94;58.25
49877;BME280;35771;48.978;9.294;2023-03-15T10:59:15;99178.81;;;5.87;57.87
49877;BME280;35771;48.978;9.294;2023-03-15T11:01:45;99192.84;;;5.91;58.95
49877;BME280;35771;48.978;9.294;2023-03-15T11:04:16;99184.50;;;5.84;60.10
49877;BME280;35771;48.978;9.294;2023-03-15T11:06:45;99188.84;;;5.77;59.81
49877;BME280;35771;48.978;9.294;2023-03-15T11:09:15;99170.16;;;5.47;60.92
49877;BME280;35771;48.978;9.294;2023-03-15T11:11:50;99174.47;;;5.40;61.31
49877;BME280;35771;48.978;9.294;2023-03-15T11:14:18;99179.22;;;5.01;63.71
49877;BME280;35771;48.978;9.294;2023-03-15T11:16:46;99206.84;;;5.03;65.74
49877;BME280;35771;48.978;9.294;2023-03-15T11:19:17;99189.91;;;5.20;66.63
49877;BME280;35771;48.978;9.294;2023-03-15T11:21:45;99196.81;;;4.95;65.93
49877;BME280;35771;48.978;9.294;2023-03-15T11:24:25;99211.91;;;4.88;66.36
49877;BME280;35771;48.978;9.294;2023-03-15T11:26:54;99200.91;;;4.61;67.08
49877;BME280;35771;48.978;9.294;2023-03-15T11:29:23;99188.28;;;4.62;68.11
49877;BME280;35771;48.978;9.294;2023-03-15T11:31:52;99214.34;;;4.71;66.77
49877;BME280;35771;48.978;9.294;2023-03-15T11:34:26;99192.22;;;4.77;67.13
49877;BME280;35771;48.978;9.294;2023-03-15T11:36:59;99190.25;;;4.70;70.07
49877;BME280;35771;48.978;9.294;2023-03-15T11:39:33;99194.34;;;4.74;72.51
49877;BME280;35771;48.978;9.294;2023-03-15T11:42:05;99181.22;;;4.51;74.87
49877;BME280;35771;48.978;9.294;2023-03-15T11:44:37;99216.19;;;4.71;77.60
49877;BME280;35771;48.978;9.294;2023-03-15T11:47:10;99205.06;;;4.36;78.17
49877;BME280;35771;48.978;9.294;2023-03-15T11:49:45;99202.81;;;4.32;79.89
49877;BME280;35771;48.978;9.294;2023-03-15T11:52:14;99213.84;;;4.29;82.82
49877;BME280;35771;48.978;9.294;2023-03-15T11:54:45;99205.09;;;4.27;86.68
49877;BME280;35771;48.978;9.294;2023-03-15T11:57:42;99200.44;;;3.80;94.52
49877;BME280;35771;48.978;9.294;2023-03-15T12:23:33;99237.47;;;3.06;100.00
49877;BME280;35771;48.978;9.294;2023-03-15T12:26:06;99247.28;;;2.86;100.00
49877;BME280;35771;48.978;9.294;2023-03-15T12:28:36;99251.97;;;2.94;100.00
49877;BME280;35771;48.978;9.294;2023-03-15T12:31:04;99265.44;;;3.04;100.00
49877;BME280;35771;48.978;9.294;2023-03-15T12:33:44;99234.00;;;2.63;100.00
49877;BME280;35771;48.978;9.294;2023-03-15T12:36:18;99270.97;;;2.81;100.00
49877;BME280;35771;48.978;9.294;2023-03-15T12:38:59;99263.13;;;2.68;100.00
49877;BME280;35771;48.978;9.294;2023-03-15T12:41:35;99240.53;;;2.50;100.00
49877;BME280;35771;48.978;9.294;2023-03-15T12:44:17;99244.22;;;2.27;100.00
49877;BME280;35771;48.978;9.294;2023-03-15T12:46:57;99225.69;;;2.67;100.00
49877;BME280;35771;48.978;9.294;2023-03-15T12:49:35;99211.66;;;2.63;100.00
49877;BME280;35771;48.978;9.294;2023-03-15T12:52:04;99227.00;;;3.03;100.00
49877;BME280;35771;48.978;9.294;2023-03-15T12:54:39;99225.94;;;3.25;100.00
49877;BME280;35771;48.978;9.294;2023-03-15T12:57:09;99200.19;;;3.32;100.00
49877;BME280;35771;48.978;9.294;2023-03-15T12:59:49;99223.41;;;3.43;100.00
49877;BME280;35771;48.978;9.294;2023-03-15T13:02:24;99199.91;;;3.35;100.00
49877;BME280;35771;48.978;9.294;2023-03-15T13:04:58;99201.13;;;3.72;100.00
49877;BME280;35771;48.978;9.294;2023-03-15T13:07:33;99223.03;;;3.48;100.00
49877;BME280;35771;48.978;9.294;2023-03-15T13:10:46;99210.91;;;3.93;100.00
49877;BME280;35771;48.978;9.294;2023-03-15T13:13:36;99228.72;;;4.33;100.00
49877;BME280;35771;48.978;9.294;2023-03-15T13:16:22;99202.97;;;4.20;100.00
49877;BME280;35771;48.978;9.294;2023-03-15T13:18:58;99240.78;;;4.29;100.00
49877;BME280;35771;48.978;9.294;2023-03-15T13:21:33;99225.03;;;4.43;100.00
49877;BME280;35771;48.978;9.294;2023-03-15T13:24:01;99208.63;;;4.27;100.00
49877;BME280;35771;48.978;9.294;2023-03-15T13:26:37;99238.91;;;4.58;100.00
49877;BME280;35771;48.978;9.294;2023-03-15T13:29:11;99223.47;;;4.51;100.00
49877;BME280;35771;48.978;9.294;2023-03-15T13:31:39;99222.19;;;4.45;100.00
49877;BME280;35771;48.978;9.294;2023-03-15T13:47:44;99200.44;;;5.13;100.00
49877;BME280;35771;48.978;9.294;2023-03-15T13:50:13;99187.28;;;5.10;100.00
49877;BME280;35771;48.978;9.294;2023-03-15T13:52:41;99213.06;;;5.13;100.00
49877;BME280;35771;48.978;9.294;2023-03-15T13:55:11;99194.31;;;5.21;100.00
49877;BME280;35771;48.978;9.294;2023-03-15T13:57:38;99190.34;;;5.16;100.00
49877;BME280;35771;48.978;9.294;2023-03-15T14:00:08;99202.63;;;5.28;100.00
49877;BME280;35771;48.978;9.294;2023-03-15T14:02:44;99202.28;;;5.13;100.00
49877;BME280;35771;48.978;9.294;2023-03-15T14:05:16;99194.31;;;4.84;100.00
49877;BME280;35771;48.978;9.294;2023-03-15T14:07:44;99195.34;;;4.73;100.00
49877;BME280;35771;48.978;9.294;2023-03-15T14:49:03;99198.25;;;5.27;100.00
49877;BME280;35771;48.978;9.294;2023-03-15T14:51:30;99199.28;;;5.16;100.00
49877;BME280;35771;48.978;9.294;2023-03-15T14:53:58;99187.06;;;4.94;100.00
49877;BME280;35771;48.978;9.294;2023-03-15T14:56:25;99207.41;;;5.06;100.00
49877;BME280;35771;48.978;9.294;2023-03-15T14:58:52;99206.78;;;4.85;100.00
49877;BME280;35771;48.978;9.294;2023-03-15T15:01:21;99201.72;;;4.72;100.00
49877;BME280;35771;48.978;9.294;2023-03-15T15:03:52;99191.25;;;4.59;100.00
49877;BME280;35771;48.978;9.294;2023-03-15T15:06:20;99205.91;;;4.47;100.00
49877;BME280;35771;48.978;9.294;2023-03-15T15:08:48;99195.75;;;4.31;100.00
49877;BME280;35771;48.978;9.294;2023-03-15T15:11:17;99215.41;;;4.31;100.00
49877;BME280;35771;48.978;9.294;2023-03-15T15:13:43;99198.59;;;4.10;100.00
49877;BME280;35771;48.978;9.294;2023-03-15T15:16:10;99219.69;;;4.14;100.00
49877;BME280;35771;48.978;9.294;2023-03-15T15:18:37;99206.94;;;4.06;100.00
49877;BME280;35771;48.978;9.294;2023-03-15T15:21:10;99208.78;;;4.06;100.00
49877;BME280;35771;48.978;9.294;2023-03-15T15:23:40;99229.75;;;4.02;100.00
49877;BME280;35771;48.978;9.294;2023-03-15T15:26:13;99220.66;;;3.94;100.00
49877;BME280;35771;48.978;9.294;2023-03-15T15:28:42;99219.69;;;4.04;100.00
49877;BME280;35771;48.978;9.294;2023-03-15T15:31:13;99223.50;;;4.02;100.00
49877;BME280;35771;48.978;9.294;2023-03-15T15:33:40;99225.06;;;4.14;100.00
49877;BME280;35771;48.978;9.294;2023-03-15T15:36:11;99235.53;;;4.27;100.00
49877;BME280;35771;48.978;9.294;2023-03-15T15:38:40;99227.34;;;4.19;100.00
49877;BME280;35771;48.978;9.294;2023-03-15T15:41:12;99234.13;;;4.13;100.00
49877;BME280;35771;48.978;9.294;2023-03-15T15:43:39;99233.28;;;4.13;100.00
49877;BME280;35771;48.978;9.294;2023-03-15T15:46:08;99238.09;;;4.19;100.00
49877;BME280;35771;48.978;9.294;2023-03-15T15:48:35;99244.75;;;4.15;100.00
49877;BME280;35771;48.978;9.294;2023-03-15T15:51:18;99241.50;;;4.11;100.00
49877;BME280;35771;48.978;9.294;2023-03-15T15:53:46;99242.19;;;4.23;100.00
49877;BME280;35771;48.978;9.294;2023-03-15T15:56:13;99251.13;;;4.23;100.00
49877;BME280;35771;48.978;9.294;2023-03-15T15:58:40;99256.06;;;4.28;100.00
49877;BME280;35771;48.978;9.294;2023-03-15T16:01:10;99247.56;;;4.23;100.00
49877;BME280;35771;48.978;9.294;2023-03-15T16:03:37;99249.56;;;4.31;100.00
49877;BME280;35771;48.978;9.294;2023-03-15T16:06:04;99260.47;;;4.29;100.00
49877;BME280;35771;48.978;9.294;2023-03-15T16:08:33;99268.25;;;4.42;100.00
49877;BME280;35771;48.978;9.294;2023-03-15T16:11:04;99251.84;;;4.16;100.00
49877;BME280;35771;48.978;9.294;2023-03-15T16:13:31;99273.78;;;4.11;100.00
49877;BME280;35771;48.978;9.294;2023-03-15T16:15:57;99276.31;;;4.03;100.00
49877;BME280;35771;48.978;9.294;2023-03-15T16:18:24;99266.53;;;3.92;100.00
49877;BME280;35771;48.978;9.294;2023-03-15T16:20:51;99266.13;;;3.87;100.00
49877;BME280;35771;48.978;9.294;2023-03-15T16:23:21;99266.09;;;3.77;100.00
49877;BME280;35771;48.978;9.294;2023-03-15T16:25:52;99269.91;;;3.75;100.00
49877;BME280;35771;48.978;9.294;2023-03-15T16:28:21;99256.72;;;3.71;100.00
49877;BME280;35771;48.978;9.294;2023-03-15T16:30:49;99281.81;;;3.82;100.00
49877;BME280;35771;48.978;9.294;2023-03-15T16:33:17;99269.63;;;3.68;100.00
49877;BME280;35771;48.978;9.294;2023-03-15T16:35:45;99268.50;;;3.70;100.00
49877;BME280;35771;48.978;9.294;2023-03-15T16:38:14;99264.81;;;3.71;100.00
49877;BME280;35771;48.978;9.294;2023-03-15T16:40:43;99286.34;;;3.81;100.00
49877;BME280;35771;48.978;9.294;2023-03-15T16:43:11;99276.84;;;3.67;100.00
49877;BME280;35771;48.978;9.294;2023-03-15T16:45:39;99292.00;;;3.78;100.00
49877;BME280;35771;48.978;9.294;2023-03-15T16:48:06;99276.38;;;3.62;100.00
49877;BME280;35771;48.978;9.294;2023-03-15T16:50:33;99287.84;;;3.54;100.00
49877;BME280;35771;48.978;9.294;2023-03-15T16:53:04;99279.44;;;3.38;100.00
49877;BME280;35771;48.978;9.294;2023-03-15T16:55:31;99291.75;;;3.41;100.00
49877;BME280;35771;48.978;9.294;2023-03-15T16:57:58;99276.06;;;3.46;100.00
49877;BME280;35771;48.978;9.294;2023-03-15T17:00:25;99303.97;;;3.54;100.00
49877;BME280;35771;48.978;9.294;2023-03-15T17:02:53;99297.16;;;3.50;100.00
49877;BME280;35771;48.978;9.294;2023-03-15T17:05:24;99300.84;;;3.49;100.00
49877;BME280;35771;48.978;9.294;2023-03-15T17:07:52;99303.53;;;3.49;100.00
49877;BME280;35771;48.978;9.294;2023-03-15T17:10:22;99301.97;;;3.47;100.00
49877;BME280;35771;48.978;9.294;2023-03-15T17:12:49;99325.34;;;3.56;100.00
49877;BME280;35771;48.978;9.294;2023-03-15T17:15:17;99308.63;;;3.52;100.00
49877;BME280;35771;48.978;9.294;2023-03-15T17:17:45;99312.03;;;3.54;100.00
49877;BME280;35771;48.978;9.294;2023-03-15T17:20:13;99334.38;;;3.55;100.00
49877;BME280;35771;48.978;9.294;2023-03-15T17:22:46;99327.09;;;3.36;100.00
49877;BME280;35771;48.978;9.294;2023-03-15T17:25:13;99337.75;;;3.47;100.00
49877;BME280;35771;48.978;9.294;2023-03-15T17:27:41;99352.75;;;3.50;100.00
49877;BME280;35771;48.978;9.294;2023-03-15T17:30:15;99355.00;;;3.45;100.00
49877;BME280;35771;48.978;9.294;2023-03-15T17:32:42;99338.16;;;3.12;100.00
49877;BME280;35771;48.978;9.294;2023-03-15T17:35:09;99367.09;;;3.29;100.00
49877;BME280;35771;48.978;9.294;2023-03-15T17:37:38;99363.41;;;3.30;100.00
49877;BME280;35771;48.978;9.294;2023-03-15T17:40:16;99367.81;;;3.31;100.00
49877;BME280;35771;48.978;9.294;2023-03-15T17:42:43;99367.63;;;3.23;100.00
49877;BME280;35771;48.978;9.294;2023-03-15T17:45:14;99370.38;;;3.33;100.00
49877;BME280;35771;48.978;9.294;2023-03-15T17:47:40;99357.50;;;3.36;100.00
49877;BME280;35771;48.978;9.294;2023-03-15T17:50:08;99367.94;;;3.30;100.00
49877;BME280;35771;48.978;9.294;2023-03-15T17:52:35;99375.69;;;3.23;100.00
49877;BME280;35771;48.978;9.294;2023-03-15T17:55:04;99377.25;;;3.26;100.00
49877;BME280;35771;48.978;9.294;2023-03-15T17:57:31;99369.19;;;3.26;100.00
49877;BME280;35771;48.978;9.294;2023-03-15T17:59:58;99369.88;;;3.18;100.00
49877;BME280;35771;48.978;9.294;2023-03-15T18:02:24;99373.66;;;3.15;100.00
49877;BME280;35771;48.978;9.294;2023-03-15T18:04:52;99380.09;;;3.03;100.00
49877;BME280;35771;48.978;9.294;2023-03-15T18:07:18;99395.22;;;3.04;100.00
49877;BME280;35771;48.978;9.294;2023-03-15T18:09:45;99373.09;;;2.91;100.00
49877;BME280;35771;48.978;9.294;2023-03-15T18:12:14;99381.13;;;2.91;100.00
